Time;durP1;ratioP1;P1;durP2;ratioP2;P2;SDS_P1;SDS_P2;PMS_P1;PMS_P2;Temp;Humidity;BMP_temperature;BMP_pressure;BME280_temperature;BME280_humidity;BME280_pressure;Samples;Min_cycle;Max_cycle;Signal;HPM_P1;HPM_P2
2022/08/30 00:01:16;;;;;;;17.98;10.88;;;;;;;25.00;100.00;99456.42;1755928;80;20846;-71
2022/08/30 00:03:44;;;;;;;21.48;11.00;;;;;;;24.97;100.00;99455.27;1755592;81;21189;-75
2022/08/30 00:06:14;;;;;;;20.48;11.22;;;;;;;24.97;100.00;99453.05;1718941;81;21173;-73
2022/08/30 00:08:54;;;;;;;14.78;11.25;;;;;;;24.96;100.00;99455.69;1742930;81;21546;-71
2022/08/30 00:11:25;;;;;;;;;;;;;;;24.95;100.00;99456.89;1756259;81;20952;-71
2022/08/30 00:13:56;;;;;;;23.92;11.75;;;;;;;24.95;100.00;99458.30;1749126;81;20439;-69
2022/08/30 00:16:34;;;;;;;17.82;10.93;;;;;;;24.93;100.00;99458.72;1755712;81;21720;-71
2022/08/30 00:19:02;;;;;;;18.62;11.65;;;;;;;24.96;100.00;99457.09;1693835;83;20965;-74
2022/08/30 00:21:33;;;;;;;20.17;11.93;;;;;;;24.98;100.00;99460.27;1695977;84;21504;-72
2022/08/30 00:24:04;;;;;;;25.08;11.08;;;;;;;24.99;100.00;99458.44;1688737;83;21112;-74
2022/08/30 00:26:45;;;;;;;15.88;10.75;;;;;;;25.00;100.00;99458.64;1737589;81;21410;-74
2022/08/30 00:29:17;;;;;;;20.57;11.90;;;;;;;25.02;100.00;99461.03;1747800;81;21059;-71
2022/08/30 00:31:48;;;;;;;19.32;11.45;;;;;;;25.07;100.00;99458.36;1738903;81;21493;-72
2022/08/30 00:34:24;;;;;;;17.62;11.60;;;;;;;25.04;100.00;99460.02;1747689;81;21060;-74
2022/08/30 00:36:50;;;;;;;13.68;10.80;;;;;;;25.04;100.00;99457.97;1746213;81;21569;-72
2022/08/30 00:39:20;;;;;;;15.65;11.08;;;;;;;25.06;100.00;99454.73;1722952;81;21087;-73
2022/08/30 00:41:48;;;;;;;17.12;11.08;;;;;;;25.03;100.00;99456.39;1758423;81;21782;-72
2022/08/30 00:44:26;;;;;;;15.15;11.00;;;;;;;25.04;100.00;99460.02;1753757;81;20897;-71
2022/08/30 00:46:56;;;;;;;20.62;12.00;;;;;;;25.04;100.00;99455.16;1749501;81;21038;-74
2022/08/30 00:49:27;;;;;;;16.42;11.63;;;;;;;25.03;100.00;99470.47;1746148;81;21016;-73
2022/08/30 00:52:00;;;;;;;18.23;11.03;;;;;;;25.04;100.00;99469.24;1744181;81;20949;-73
2022/08/30 00:54:30;;;;;;;17.50;11.12;;;;;;;25.06;100.00;99459.59;1743515;81;21739;-74
2022/08/30 00:56:58;;;;;;;15.43;10.05;;;;;;;25.05;100.00;99465.83;1717861;82;21021;-74
2022/08/30 00:59:33;;;;;;;17.77;11.12;;;;;;;25.09;100.00;99466.59;1744765;81;21009;-73
2022/08/30 01:02:06;;;;;;;18.73;10.10;;;;;;;25.09;100.00;99470.82;1752447;80;21024;-71
2022/08/30 01:04:42;;;;;;;15.93;10.72;;;;;;;25.01;100.00;99472.91;1758486;81;20889;-75
2022/08/30 01:07:13;;;;;;;13.43;10.10;;;;;;;24.95;100.00;99471.78;1746014;80;21193;-74
2022/08/30 01:09:47;;;;;;;18.37;10.28;;;;;;;24.90;100.00;99467.39;1742484;81;21062;-74
2022/08/30 01:12:23;;;;;;;18.92;10.53;;;;;;;24.87;100.00;99471.02;1745260;81;20989;-75
2022/08/30 01:14:58;;;;;;;18.25;10.55;;;;;;;24.79;100.00;99470.32;1723802;80;21017;-71
2022/08/30 01:17:34;;;;;;;15.78;10.38;;;;;;;24.76;100.00;99469.76;1739971;81;20921;-71
2022/08/30 01:20:29;;;;;;;21.97;11.50;;;;;;;24.76;100.00;99468.95;1740920;80;21004;-74
2022/08/30 01:23:16;;;;;;;15.08;10.38;;;;;;;24.71;100.00;99471.62;1755250;81;21520;-74
2022/08/30 01:25:45;;;;;;;18.12;11.53;;;;;;;24.69;100.00;99471.23;1744600;81;21067;-74
2022/08/30 01:28:21;;;;;;;15.55;11.00;;;;;;;24.64;100.00;99469.68;1747579;81;21454;-76
2022/08/30 01:30:57;;;;;;;17.95;10.60;;;;;;;24.57;100.00;99472.56;1719656;81;20865;-72
2022/08/30 01:33:25;;;;;;;16.97;11.25;;;;;;;24.50;100.00;99469.21;1740396;81;21206;-72
2022/08/30 01:36:05;;;;;;;20.50;10.88;;;;;;;24.46;100.00;99471.88;1744569;80;21438;-72
2022/08/30 01:38:49;;;;;;;18.15;11.60;;;;;;;24.44;100.00;99465.27;1718253;81;20897;-72
2022/08/30 01:41:23;;;;;;;17.17;11.50;;;;;;;24.49;100.00;99466.22;1752777;81;21047;-75
2022/08/30 01:43:54;;;;;;;15.30;10.88;;;;;;;24.48;100.00;99464.61;1750530;81;20952;-72
2022/08/30 01:46:29;;;;;;;15.60;11.50;;;;;;;24.45;100.00;99466.84;1742928;81;20993;-73
2022/08/30 01:49:08;;;;;;;16.00;11.05;;;;;;;24.42;100.00;99468.50;1748246;81;21027;-72
2022/08/30 01:51:48;;;;;;;14.93;10.95;;;;;;;24.40;100.00;99466.70;1748001;81;20942;-72
2022/08/30 01:54:24;;;;;;;17.67;10.98;;;;;;;24.38;100.00;99471.94;1741252;81;21556;-73
2022/08/30 01:56:56;;;;;;;17.45;11.70;;;;;;;24.35;100.00;99471.38;1741096;81;21055;-71
2022/08/30 01:59:46;;;;;;;18.40;11.38;;;;;;;24.33;100.00;99472.39;1741188;81;21054;-75
2022/08/30 02:02:19;;;;;;;16.15;11.53;;;;;;;24.31;100.00;99474.81;1748012;81;21070;-75
2022/08/30 02:04:52;;;;;;;16.52;11.85;;;;;;;24.29;100.00;99475.23;1746009;81;20936;-70
2022/08/30 02:07:26;;;;;;;19.80;12.65;;;;;;;24.27;100.00;99474.87;1753706;81;21001;-76
2022/08/30 02:09:57;;;;;;;21.80;12.10;;;;;;;24.27;100.00;99486.73;1740076;81;21000;-75
2022/08/30 02:12:32;;;;;;;19.23;12.07;;;;;;;24.24;100.00;99481.31;1750582;81;21237;-74
2022/08/30 02:15:11;;;;;;;15.85;12.70;;;;;;;24.23;100.00;99484.54;1694342;83;21410;-75
2022/08/30 02:17:41;;;;;;;14.60;11.28;;;;;;;24.19;100.00;99491.63;1698069;83;21019;-75
2022/08/30 02:20:10;;;;;;;18.23;12.25;;;;;;;24.18;100.00;99492.83;1699159;83;20908;-76
2022/08/30 02:22:51;;;;;;;16.52;11.73;;;;;;;24.11;100.00;99496.47;1709509;83;21576;-76
2022/08/30 02:25:28;;;;;;;16.48;12.35;;;;;;;24.05;100.00;99497.51;1718308;82;21119;-74
2022/08/30 02:28:05;;;;;;;16.45;11.88;;;;;;;23.98;100.00;99501.81;1692867;83;21009;-74
2022/08/30 02:30:38;;;;;;;21.97;12.33;;;;;;;23.91;100.00;99499.84;1703159;83;21015;-76
2022/08/30 02:33:08;;;;;;;19.80;12.03;;;;;;;23.87;100.00;99496.24;1703681;83;21013;-77
2022/08/30 02:35:38;;;;;;;19.95;13.15;;;;;;;23.82;100.00;99503.11;1703827;83;21074;-74
2022/08/30 02:38:12;;;;;;;17.32;12.43;;;;;;;23.78;100.00;99507.95;1699332;83;21128;-75
2022/08/30 02:40:44;;;;;;;18.25;13.25;;;;;;;23.73;100.00;99510.41;1751262;80;21048;-75
2022/08/30 02:43:20;;;;;;;17.05;12.37;;;;;;;23.67;100.00;99516.47;1749014;81;21011;-70
2022/08/30 02:45:52;;;;;;;20.48;12.15;;;;;;;23.62;100.00;99516.90;1748551;81;21492;-74
2022/08/30 02:48:23;;;;;;;23.35;12.63;;;;;;;23.60;100.00;99510.88;1755968;80;21013;-72
2022/08/30 02:51:04;;;;;;;14.65;11.53;;;;;;;23.57;100.00;99516.73;1747149;80;21467;-75
2022/08/30 02:53:32;;;;;;;17.98;12.65;;;;;;;23.57;100.00;99517.33;1750960;81;21000;-73
2022/08/30 02:56:03;;;;;;;15.40;11.73;;;;;;;23.54;100.00;99520.34;1749189;81;21071;-74
2022/08/30 02:58:37;;;;;;;14.98;11.83;;;;;;;23.53;100.00;99522.16;1728288;81;21086;-75
2022/08/30 03:01:12;;;;;;;21.02;12.20;;;;;;;23.50;100.00;99520.98;1743372;81;21072;-75
2022/08/30 03:03:50;;;;;;;18.52;12.15;;;;;;;23.48;100.00;99526.20;1742573;81;22317;-74
2022/08/30 03:06:18;;;;;;;20.30;12.98;;;;;;;23.49;100.00;99524.98;1752459;81;21030;-74
2022/08/30 03:08:54;;;;;;;14.47;11.85;;;;;;;23.47;100.00;99527.42;1752219;81;21001;-75
2022/08/30 03:11:31;;;;;;;18.67;13.50;;;;;;;23.45;100.00;99528.42;1749243;81;21473;-75
2022/08/30 03:14:10;;;;;;;19.57;13.90;;;;;;;23.44;100.00;99532.46;1752842;81;21004;-75
2022/08/30 03:16:49;;;;;;;17.45;13.22;;;;;;;23.38;100.00;99529.83;1746724;81;21231;-73
2022/08/30 03:19:25;;;;;;;16.67;13.58;;;;;;;23.33;100.00;99536.68;1754766;81;20941;-77
2022/08/30 03:21:53;;;;;;;18.55;12.60;;;;;;;23.33;100.00;99536.68;1745592;80;21055;-74
2022/08/30 03:24:23;;;;;;;20.10;13.38;;;;;;;23.41;100.00;99534.66;1743946;81;21020;-75
2022/08/30 03:26:54;;;;;;;14.73;12.43;;;;;;;23.41;100.00;99543.91;1749300;81;20983;-77
2022/08/30 03:29:22;;;;;;;23.25;13.43;;;;;;;23.43;100.00;99544.89;1748371;81;21691;-73
2022/08/30 03:32:04;;;;;;;17.77;13.55;;;;;;;23.43;100.00;99550.52;1753943;81;20991;-73
2022/08/30 03:34:37;;;;;;;15.93;13.35;;;;;;;23.43;100.00;99552.73;1747455;81;20957;-76
2022/08/30 03:37:15;;;;;;;21.45;14.55;;;;;;;23.37;100.00;99557.75;1748770;81;21004;-74
2022/08/30 03:39:44;;;;;;;20.00;14.70;;;;;;;23.34;100.00;99561.56;1757397;80;20996;-74
2022/08/30 03:42:15;;;;;;;19.10;13.90;;;;;;;23.35;100.00;99556.12;1749153;81;21220;-74
2022/08/30 03:44:42;;;;;;;21.68;14.43;;;;;;;23.29;100.00;99570.41;1743375;80;20941;-77
2022/08/30 03:47:16;;;;;;;19.80;13.95;;;;;;;23.33;100.00;99569.81;1745158;81;21000;-75
2022/08/30 03:49:53;;;;;;;18.85;14.53;;;;;;;23.29;100.00;99583.06;1747896;81;20981;-76
2022/08/30 03:52:21;;;;;;;16.52;14.38;;;;;;;23.30;100.00;99582.47;1748650;81;21615;-72
2022/08/30 03:54:59;;;;;;;15.75;13.65;;;;;;;23.23;100.00;99584.69;1736177;81;21374;-75
2022/08/30 03:57:29;;;;;;;18.85;15.32;;;;;;;23.21;100.00;99589.31;1744180;81;20925;-75
2022/08/30 04:00:06;;;;;;;19.62;14.65;;;;;;;23.19;100.00;99589.51;1742866;81;20972;-70
2022/08/30 04:02:46;;;;;;;21.48;14.35;;;;;;;23.18;100.00;99598.56;1751419;80;21631;-75
2022/08/30 04:05:23;;;;;;;18.90;14.65;;;;;;;23.17;100.00;99598.94;1741810;81;21031;-74
2022/08/30 04:07:53;;;;;;;17.75;14.55;;;;;;;23.16;100.00;99611.40;1717239;81;21247;-74
2022/08/30 04:10:28;;;;;;;18.30;14.78;;;;;;;23.20;100.00;99610.80;1722333;81;20870;-77
2022/08/30 04:13:04;;;;;;;16.50;13.72;;;;;;;23.17;100.00;99613.80;1695118;83;20933;-74
2022/08/30 04:15:33;;;;;;;19.57;14.35;;;;;;;23.15;100.00;99610.59;1707374;83;20973;-74
2022/08/30 04:18:02;;;;;;;18.10;13.03;;;;;;;23.20;100.00;99607.98;1682536;83;20928;-72
2022/08/30 04:20:32;;;;;;;20.95;14.13;;;;;;;23.24;100.00;99610.17;1696001;83;21433;-75
2022/08/30 04:23:02;;;;;;;15.70;14.05;;;;;;;23.26;100.00;99613.37;1694919;83;21009;-73
2022/08/30 04:25:33;;;;;;;14.58;12.63;;;;;;;23.29;100.00;99611.16;1683990;83;20957;-75
2022/08/30 04:28:08;;;;;;;16.15;13.03;;;;;;;23.31;100.00;99614.38;1689082;83;20885;-73
2022/08/30 04:30:38;;;;;;;;;;;;;;;23.34;100.00;99605.13;1700312;84;21064;-73
2022/08/30 04:33:13;;;;;;;15.45;12.25;;;;;;;23.41;100.00;99607.73;1692920;83;21978;-71
2022/08/30 04:35:49;;;;;;;14.70;11.95;;;;;;;23.42;100.00;99611.55;1685823;83;20896;-74
2022/08/30 04:38:16;;;;;;;16.50;12.50;;;;;;;23.42;100.00;99610.77;1689917;84;21023;-72
2022/08/30 04:40:51;;;;;;;20.40;12.05;;;;;;;23.48;100.00;99609.12;1704207;83;21512;-74
2022/08/30 04:43:20;;;;;;;19.15;11.33;;;;;;;23.54;100.00;99609.52;1685705;84;21084;-72
2022/08/30 04:45:48;;;;;;;17.12;12.03;;;;;;;23.57;100.00;99610.91;1688848;83;21533;-76
2022/08/30 04:48:22;;;;;;;13.55;11.00;;;;;;;23.58;100.00;99615.31;1660419;84;21030;-73
2022/08/30 04:50:55;;;;;;;13.50;9.95;;;;;;;23.64;100.00;99612.89;1697374;83;20945;-75
2022/08/30 04:53:24;;;;;;;13.27;10.87;;;;;;;23.65;100.00;99617.89;1695763;84;21079;-73
2022/08/30 04:56:00;;;;;;;11.70;10.23;;;;;;;23.69;100.00;99617.28;1753452;81;21102;-76
2022/08/30 04:58:31;;;;;;;15.58;10.30;;;;;;;23.77;100.00;99615.23;1754046;80;21130;-70
2022/08/30 05:01:13;;;;;;;14.30;10.60;;;;;;;23.84;100.00;99615.20;1743691;80;20984;-74
2022/08/30 05:03:44;;;;;;;14.47;9.48;;;;;;;23.89;100.00;99614.78;1692578;83;20980;-75
2022/08/30 05:06:16;;;;;;;11.78;9.28;;;;;;;23.93;100.00;99616.17;1720274;82;20922;-73
2022/08/30 05:08:47;;;;;;;14.85;9.00;;;;;;;23.98;100.00;99614.33;1723464;81;21637;-71
2022/08/30 05:11:25;;;;;;;13.65;9.33;;;;;;;24.04;100.00;99609.86;1735864;81;21147;-72
2022/08/30 05:14:01;;;;;;;11.35;8.98;;;;;;;24.10;100.00;99619.28;1746483;81;20985;-73
2022/08/30 05:16:33;;;;;;;11.15;8.33;;;;;;;24.12;100.00;99615.45;1740059;81;21466;-70
2022/08/30 05:19:00;;;;;;;13.45;8.08;;;;;;;24.15;100.00;99611.81;1743106;81;20965;-75
2022/08/30 05:21:29;;;;;;;7.95;7.12;;;;;;;24.19;100.00;99613.42;1737598;81;21057;-76
2022/08/30 05:23:58;;;;;;;14.53;8.08;;;;;;;24.25;100.00;99610.98;1749743;81;21183;-76
2022/08/30 05:26:29;;;;;;;14.68;7.95;;;;;;;24.30;100.00;99606.92;1742939;81;20993;-71
2022/08/30 05:29:05;;;;;;;9.23;7.28;;;;;;;24.33;100.00;99606.72;1744631;81;20989;-75
2022/08/30 05:31:35;;;;;;;11.43;7.45;;;;;;;24.36;100.00;99601.66;1719539;81;21065;-73
2022/08/30 05:34:02;;;;;;;7.50;6.62;;;;;;;24.38;100.00;99602.84;1743638;81;20961;-75
2022/08/30 05:36:34;;;;;;;8.90;7.00;;;;;;;24.43;100.00;99602.99;1744034;81;21298;-73
2022/08/30 05:39:06;;;;;;;9.25;7.67;;;;;;;24.48;100.00;99602.55;1734778;81;21623;-74
2022/08/30 05:41:33;;;;;;;9.10;7.58;;;;;;;24.53;100.00;99597.89;1738991;81;21603;-75
2022/08/30 05:44:03;;;;;;;12.13;7.53;;;;;;;24.55;100.00;99596.87;1739218;81;21707;-74
2022/08/30 05:46:32;;;;;;;8.90;6.80;;;;;;;24.62;100.00;99598.83;1740672;81;21068;-75
2022/08/30 05:49:01;;;;;;;7.97;6.58;;;;;;;24.68;100.00;99601.38;1743341;81;21256;-73
2022/08/30 05:51:45;;;;;;;7.25;6.40;;;;;;;24.71;100.00;99596.14;1714015;81;20985;-74
2022/08/30 05:54:20;;;;;;;13.30;7.33;;;;;;;24.77;100.00;99583.22;1746014;81;21403;-75
2022/08/30 05:56:50;;;;;;;11.25;6.35;;;;;;;24.86;100.00;99581.30;1746461;80;20965;-75
2022/08/30 05:59:17;;;;;;;6.22;5.62;;;;;;;24.95;100.00;99587.90;1731452;81;20946;-75
2022/08/30 06:01:54;;;;;;;7.83;5.12;;;;;;;25.03;100.00;99584.59;1719588;81;20922;-72
2022/08/30 06:07:15;;;;;;;9.13;5.78;;;;;;;25.20;100.00;99590.45;1736748;81;21040;-72
2022/08/30 06:09:52;;;;;;;8.43;5.67;;;;;;;25.24;100.00;99578.53;1733318;80;21506;-74
2022/08/30 06:12:20;;;;;;;11.35;6.35;;;;;;;25.32;100.00;99585.52;1741585;80;21476;-78
2022/08/30 06:14:51;;;;;;;6.40;5.58;;;;;;;25.42;100.00;99583.14;1736207;81;21129;-75
2022/08/30 06:17:23;;;;;;;7.62;5.67;;;;;;;25.45;100.00;99588.56;1744423;81;20987;-76
2022/08/30 06:19:51;;;;;;;9.00;5.80;;;;;;;25.46;100.00;99586.73;1737968;81;21014;-72
2022/08/30 06:22:22;;;;;;;7.30;5.78;;;;;;;25.46;100.00;99590.16;1740026;81;20973;-71
2022/08/30 06:24:50;;;;;;;6.07;5.37;;;;;;;25.47;100.00;99596.78;1746291;80;21105;-74
2022/08/30 06:27:30;;;;;;;5.87;4.67;;;;;;;25.49;100.00;99594.34;1736014;81;20986;-75
2022/08/30 06:30:07;;;;;;;9.35;5.30;;;;;;;25.58;100.00;99589.61;1740492;81;21451;-70
2022/08/30 06:32:34;;;;;;;8.65;4.58;;;;;;;25.68;100.00;99592.13;1740424;81;20974;-74
2022/08/30 06:35:00;;;;;;;5.42;4.37;;;;;;;25.77;100.00;99593.02;1752578;81;21014;-76
2022/08/30 06:37:31;;;;;;;4.65;4.25;;;;;;;25.87;100.00;99595.50;1737469;81;21426;-75
2022/08/30 06:40:02;;;;;;;5.28;3.77;;;;;;;25.91;100.00;99592.64;1687693;82;21065;-74
2022/08/30 06:42:32;;;;;;;5.80;4.65;;;;;;;25.97;100.00;99583.27;1677986;84;21182;-74
2022/08/30 06:45:06;;;;;;;7.75;4.70;;;;;;;26.03;100.00;99585.62;1689209;84;21195;-73
2022/08/30 06:47:36;;;;;;;;;;;;;;;26.10;100.00;99579.88;1699363;83;21017;-76
2022/08/30 06:50:11;;;;;;;7.25;3.83;;;;;;;26.15;100.00;99577.17;1748370;81;20130;-77
2022/08/30 06:52:41;;;;;;;4.22;3.67;;;;;;;26.18;100.00;99574.91;1740862;81;22186;-72
2022/08/30 06:55:09;;;;;;;6.70;3.83;;;;;;;26.23;100.00;99584.30;1744903;81;21045;-71
2022/08/30 06:57:38;;;;;;;7.22;3.60;;;;;;;26.32;100.00;99576.72;1717846;81;21010;-74
2022/08/30 07:00:11;;;;;;;5.05;4.10;;;;;;;26.38;100.00;99586.31;1745880;81;21056;-74
2022/08/30 07:03:01;;;;;;;9.30;3.95;;;;;;;26.41;100.00;99583.27;1752191;81;21005;-77
2022/08/30 07:05:36;;;;;;;9.03;4.30;;;;;;;26.43;100.00;99587.24;1754180;81;21971;-70
2022/08/30 07:08:07;;;;;;;4.53;3.98;;;;;;;26.41;100.00;99581.86;1750601;81;20985;-74
2022/08/30 07:10:35;;;;;;;4.35;3.65;;;;;;;26.40;100.00;99583.06;1750830;81;20985;-78
2022/08/30 07:13:05;;;;;;;13.18;3.83;;;;;;;26.43;100.00;99585.83;1714992;81;20945;-75
2022/08/30 07:15:38;;;;;;;4.62;3.37;;;;;;;26.49;100.00;99586.93;1743373;81;21089;-75
2022/08/30 07:21:14;;;;;;;5.92;3.30;;;;;;;26.67;100.00;99586.44;1743228;81;20993;-75
2022/08/30 07:23:50;;;;;;;6.20;3.50;;;;;;;26.76;100.00;99585.29;1744616;81;21513;-72
2022/08/30 07:26:34;;;;;;;6.05;3.85;;;;;;;26.86;100.00;99587.73;1744593;80;21478;-74
2022/08/30 07:29:07;;;;;;;5.30;3.35;;;;;;;26.92;100.00;99585.22;1744489;81;21040;-76
2022/08/30 07:31:40;;;;;;;11.88;3.33;;;;;;;26.97;100.00;99589.73;1748223;81;20909;-73
2022/08/30 07:34:28;;;;;;;5.45;3.22;;;;;;;26.96;100.00;99590.98;1747949;81;21179;-75
2022/08/30 07:37:06;;;;;;;6.80;3.33;;;;;;;26.98;100.00;99591.95;1749219;81;20976;-72
2022/08/30 07:39:38;;;;;;;5.97;3.05;;;;;;;27.04;100.00;99592.30;1755097;81;20997;-78
2022/08/30 07:42:07;;;;;;;6.00;2.95;;;;;;;27.06;100.00;99579.31;1757589;80;20986;-72
2022/08/30 07:44:39;;;;;;;4.17;3.00;;;;;;;27.12;100.00;99583.05;1736723;81;20874;-75
2022/08/30 07:47:15;;;;;;;9.30;4.45;;;;;;;27.21;100.00;99582.66;1735116;81;20993;-72
2022/08/30 07:49:47;;;;;;;7.75;3.70;;;;;;;27.32;100.00;99579.63;1752538;81;21556;-75
2022/08/30 07:52:18;;;;;;;3.87;2.83;;;;;;;27.41;100.00;99579.66;1739441;80;21036;-76
2022/08/30 07:54:52;;;;;;;4.80;3.42;;;;;;;27.41;100.00;99576.22;1735149;81;20962;-74
2022/08/30 07:57:45;;;;;;;4.62;2.72;;;;;;;27.43;100.00;99578.61;1742376;81;21053;-76
2022/08/30 08:00:15;;;;;;;6.00;3.20;;;;;;;27.49;100.00;99577.47;1745259;81;20986;-76
2022/08/30 08:02:42;;;;;;;6.80;3.27;;;;;;;27.55;100.00;99587.83;1749027;81;21497;-75
2022/08/30 08:05:15;;;;;;;6.20;3.50;;;;;;;27.58;100.00;99579.11;1746937;81;20957;-73
2022/08/30 08:07:48;;;;;;;6.37;3.15;;;;;;;27.61;100.00;99578.83;1747266;81;21036;-74
2022/08/30 08:10:19;;;;;;;11.63;3.50;;;;;;;27.65;100.00;99585.22;1744640;80;20940;-74
2022/08/30 08:12:51;;;;;;;6.65;3.22;;;;;;;27.67;100.00;99581.34;1747599;81;20926;-77
2022/08/30 08:15:21;;;;;;;5.42;2.98;;;;;;;27.71;100.00;99577.84;1742185;81;20958;-74
2022/08/30 08:17:55;;;;;;;5.25;2.75;;;;;;;27.76;99.78;99569.44;1734992;81;21494;-76
2022/08/30 08:20:35;;;;;;;9.35;3.37;;;;;;;27.80;100.00;99571.59;1744867;81;21001;-75
2022/08/30 08:23:02;;;;;;;7.55;3.60;;;;;;;27.93;100.00;99572.50;1752062;81;22039;-73
2022/08/30 08:25:34;;;;;;;6.42;3.25;;;;;;;28.06;100.00;99571.81;1743034;80;21068;-74
2022/08/30 08:28:08;;;;;;;3.83;3.10;;;;;;;28.23;98.68;99576.08;1717067;81;21517;-72
2022/08/30 08:30:37;;;;;;;4.28;3.00;;;;;;;28.31;98.88;99577.48;1755531;81;20937;-75
2022/08/30 08:33:13;;;;;;;4.30;2.95;;;;;;;28.37;96.20;99578.57;1717431;81;21100;-74
2022/08/30 08:35:51;;;;;;;3.40;2.52;;;;;;;28.48;94.24;99577.51;1755247;81;21489;-74
2022/08/30 08:38:19;;;;;;;4.50;2.72;;;;;;;28.52;91.00;99577.62;1755969;81;20922;-71
2022/08/30 08:41:04;;;;;;;9.28;3.15;;;;;;;28.57;91.84;99576.89;1749545;81;21045;-74
2022/08/30 08:43:37;;;;;;;5.60;2.98;;;;;;;28.64;91.72;99580.32;1743123;81;21469;-73
2022/08/30 08:46:31;;;;;;;4.00;2.47;;;;;;;28.70;86.56;99580.59;1734945;81;20961;-75
2022/08/30 08:49:07;;;;;;;6.97;3.45;;;;;;;28.66;84.88;99581.32;1748269;80;21041;-76
2022/08/30 08:54:43;;;;;;;6.25;2.90;;;;;;;28.68;82.69;99578.20;1738061;81;20929;-75
2022/08/30 08:57:13;;;;;;;7.10;2.77;;;;;;;28.67;84.21;99582.30;1741252;80;37925;-73
2022/08/30 08:59:44;;;;;;;12.10;3.45;;;;;;;28.73;84.62;99580.34;1752269;81;21620;-76
2022/08/30 09:02:30;;;;;;;7.53;2.70;;;;;;;28.77;83.05;99579.61;1748745;80;21875;-72
2022/08/30 09:05:03;;;;;;;7.92;3.52;;;;;;;28.76;84.95;99576.61;1734832;81;21005;-75
2022/08/30 09:07:34;;;;;;;5.40;2.83;;;;;;;28.83;87.49;99575.63;1740532;81;20882;-73
2022/08/30 09:10:08;;;;;;;9.88;3.15;;;;;;;28.92;85.88;99576.58;1740376;81;21125;-75
2022/08/30 09:12:47;;;;;;;5.60;3.12;;;;;;;28.96;86.34;99582.15;1752980;80;21049;-76
2022/08/30 09:15:21;;;;;;;5.83;2.67;;;;;;;29.05;85.24;99582.95;1742478;81;21399;-76
2022/08/30 09:18:18;;;;;;;5.42;2.72;;;;;;;29.12;86.06;99578.48;1756676;81;21056;-75
2022/08/30 09:20:51;;;;;;;6.92;2.55;;;;;;;29.21;84.55;99584.13;1746291;81;21667;-77
2022/08/30 09:23:31;;;;;;;8.35;3.30;;;;;;;29.15;82.69;99576.81;1745958;81;21526;-75
2022/08/30 09:26:12;;;;;;;9.63;2.92;;;;;;;29.18;80.66;99579.36;1744337;81;21064;-73
2022/08/30 09:28:47;;;;;;;8.58;3.72;;;;;;;29.24;81.74;99573.33;1739743;81;21052;-73
2022/08/30 09:31:46;;;;;;;6.33;2.92;;;;;;;29.28;82.58;99575.42;1748167;81;21382;-75
2022/08/30 09:34:24;;;;;;;7.03;3.10;;;;;;;29.36;80.61;99571.77;1751641;81;20989;-77
2022/08/30 09:36:59;;;;;;;6.37;2.67;;;;;;;29.45;79.34;99571.09;1751686;81;21179;-76
2022/08/30 09:42:24;;;;;;;5.37;2.52;;;;;;;29.53;79.45;99578.17;1740282;81;21265;-72
2022/08/30 09:44:52;;;;;;;7.28;2.80;;;;;;;29.49;74.95;99578.89;1746206;81;21529;-75
2022/08/30 09:47:30;;;;;;;5.95;2.95;;;;;;;29.49;75.76;99583.14;1695873;81;21104;-72
2022/08/30 09:50:11;;;;;;;5.62;2.47;;;;;;;29.59;77.98;99580.62;1737732;81;21561;-76
2022/08/30 09:53:11;;;;;;;7.00;2.35;;;;;;;29.67;77.35;99576.18;1717434;81;21474;-74
2022/08/30 09:56:08;;;;;;;5.55;2.25;;;;;;;29.72;79.10;99574.98;1746899;80;21422;-76
2022/08/30 09:59:15;;;;;;;9.60;2.50;;;;;;;29.80;77.67;99573.34;1751656;80;20933;-75
2022/08/30 10:01:46;;;;;;;4.95;2.60;;;;;;;29.86;74.58;99573.75;1742648;81;21037;-75
2022/08/30 10:04:56;;;;;;;6.75;2.72;;;;;;;29.78;76.73;99575.84;1740262;80;21116;-74
2022/08/30 10:07:55;;;;;;;3.52;2.50;;;;;;;29.72;79.00;99574.20;1733278;81;21096;-74
2022/08/30 10:10:57;;;;;;;8.70;2.98;;;;;;;29.79;81.18;99569.70;1756290;81;21172;-73
2022/08/30 10:13:50;;;;;;;5.25;3.00;;;;;;;29.88;79.93;99570.45;1750975;81;20954;-76
2022/08/30 10:16:53;;;;;;;3.27;2.45;;;;;;;29.97;81.57;99573.42;1718541;81;21545;-77
2022/08/30 10:19:28;;;;;;;5.47;2.37;;;;;;;30.10;81.18;99564.09;1756176;81;20937;-75
2022/08/30 10:22:22;;;;;;;19.12;9.58;;;;;;;30.19;76.20;99563.41;1721752;81;21683;-78
2022/08/30 10:25:22;;;;;;;4.87;3.22;;;;;;;30.19;77.96;99564.21;1742837;81;21937;-77
2022/08/30 10:28:11;;;;;;;3.27;2.70;;;;;;;30.15;76.94;99574.08;1746234;80;20992;-76
2022/08/30 10:30:52;;;;;;;3.65;2.62;;;;;;;30.13;80.17;99572.50;1741237;80;21505;-76
2022/08/30 10:33:45;;;;;;;6.17;2.72;;;;;;;30.09;78.50;99568.19;1732795;81;20961;-75
2022/08/30 10:36:15;;;;;;;4.87;2.50;;;;;;;30.08;78.16;99564.55;1751897;81;21045;-77
2022/08/30 10:39:25;;;;;;;6.67;2.25;;;;;;;30.13;78.45;99563.17;1743754;80;20982;-77
2022/08/30 10:42:20;;;;;;;5.83;2.20;;;;;;;30.18;78.24;99560.41;1738183;81;20985;-77
2022/08/30 10:45:06;;;;;;;8.30;2.65;;;;;;;30.24;76.61;99564.28;1720851;81;20954;-75
2022/08/30 10:47:44;;;;;;;4.30;2.50;;;;;;;30.25;74.99;99564.44;1758259;81;20988;-77
2022/08/30 10:50:30;;;;;;;3.92;2.05;;;;;;;30.35;75.44;99561.88;1742258;81;20846;-76
2022/08/30 10:53:15;;;;;;;5.62;2.10;;;;;;;30.40;76.22;99561.92;1744807;81;20934;-77
2022/08/30 10:56:01;;;;;;;3.27;2.20;;;;;;;30.39;77.02;99556.08;1749901;81;21537;-72
2022/08/30 10:58:30;;;;;;;2.02;1.82;;;;;;;30.52;76.87;99561.72;1748051;80;21041;-73
2022/08/30 11:01:53;;;;;;;6.83;2.45;;;;;;;30.60;73.47;99556.61;1749689;81;21041;-77
2022/08/30 11:05:05;;;;;;;9.30;2.25;;;;;;;30.66;72.88;99551.14;1678047;84;21105;-77
2022/08/30 11:07:56;;;;;;;4.70;2.40;;;;;;;30.71;72.82;99552.75;1681189;83;21600;-72
2022/08/30 11:10:42;;;;;;;4.55;2.08;;;;;;;30.78;73.41;99549.48;1696787;84;20988;-71
2022/08/30 11:13:17;;;;;;;3.92;2.05;;;;;;;30.90;72.63;99541.57;1717099;81;21022;-75
2022/08/30 11:16:14;;;;;;;7.22;2.30;;;;;;;30.96;72.18;99553.16;1745592;80;21104;-73
2022/08/30 11:18:50;;;;;;;3.60;2.25;;;;;;;30.98;72.89;99552.84;1738895;81;21115;-76
2022/08/30 11:21:41;;;;;;;4.40;2.37;;;;;;;31.02;71.90;99539.13;1668337;84;21488;-72
2022/08/30 11:24:24;;;;;;;2.37;1.92;;;;;;;31.07;69.25;99542.80;1690537;84;20922;-74
2022/08/30 11:26:59;;;;;;;4.35;2.15;;;;;;;31.06;65.51;99536.95;1690833;84;20989;-74
2022/08/30 11:29:39;;;;;;;6.58;2.30;;;;;;;31.04;69.37;99539.45;1696279;84;21029;-74
2022/08/30 11:32:21;;;;;;;7.83;1.87;;;;;;;31.07;69.49;99541.38;1697340;84;21049;-72
2022/08/30 11:35:01;;;;;;;4.00;2.17;;;;;;;31.16;68.67;99547.14;1694006;84;21261;-78
2022/08/30 11:37:46;;;;;;;8.13;2.20;;;;;;;31.27;66.84;99542.45;1691273;84;21014;-77
2022/08/30 11:40:49;;;;;;;4.65;2.45;;;;;;;31.33;68.74;99539.20;1693246;84;21036;-73
2022/08/30 11:43:40;;;;;;;6.40;2.22;;;;;;;31.45;67.49;99533.91;1696827;84;21021;-73
2022/08/30 11:46:32;;;;;;;4.17;1.87;;;;;;;31.38;67.12;99544.11;1694220;83;21308;-72
2022/08/30 11:49:21;;;;;;;2.65;1.90;;;;;;;31.18;65.08;99531.84;1695807;84;21159;-75
2022/08/30 11:52:16;;;;;;;5.67;2.30;;;;;;;31.07;66.93;99535.69;1694607;84;21394;-73
2022/08/30 11:55:15;;;;;;;4.50;2.27;;;;;;;31.10;67.86;99535.55;1698182;84;21104;-77
2022/08/30 11:58:10;;;;;;;6.65;2.50;;;;;;;31.12;65.97;99526.56;1666724;84;21085;-75
2022/08/30 12:00:41;;;;;;;3.42;1.85;;;;;;;31.14;66.32;99524.67;1697306;84;21085;-76
2022/08/30 12:03:31;;;;;;;2.83;1.52;;;;;;;31.23;67.59;99531.86;1696942;83;21244;-77
2022/08/30 12:06:48;;;;;;;6.72;1.90;;;;;;;31.25;63.84;99525.70;1696456;84;21442;-81
2022/08/30 12:09:31;;;;;;;2.92;1.82;;;;;;;31.22;65.32;99524.56;1697562;83;21169;-75
2022/08/30 12:12:29;;;;;;;4.25;1.90;;;;;;;31.28;69.05;99525.57;1670151;84;21533;-72
2022/08/30 12:15:02;;;;;;;5.33;1.85;;;;;;;31.37;65.70;99516.30;1681591;84;20997;-77
2022/08/30 12:20:54;;;;;;;5.87;2.08;;;;;;;31.38;65.44;99510.77;1693339;84;21018;-75